Latest Weather Observations for Casino

IDN60801

Issued at 8:05 pm EST Friday 25 July 2014 (issued every 30 minutes, with the page automatically refreshed every 10 minutes)

About weather observations | Map of weather stations | Latest weather observations for NSW | Other Formats
Station Details ID: 058208 Name: CASINO AIRPORT AWS Lat: -28.88 Lon: 153.06 Height: 20.9 m
Data from the previous 72 hours. | See also: Recent months at Casino
Date/Time
EST
Temp
°C
App
Temp
°C
Dew
Point
Rel
Hum
%
Delta-T
°C
Wind Press
QNH
hPa
Press
MSL
hPa
Rain
since 9 am
mm
Dir
 
Spd
km/h
Gust
km/h
Spd
kts
Gust
kts
25/08:00pm 13.5 14.0 11.7 89 1.0 ENE 0 6 0 3 1025.2 1025.2 0.0
25/07:30pm 13.4 12.4 10.9 85 1.3 E 7 7 4 4 1025.0 - 0.0
25/07:00pm 14.3 13.4 11.5 83 1.5 ESE 7 9 4 5 1024.7 1024.7 0.0
25/06:30pm 14.7 14.4 11.3 80 1.8 SE 4 7 2 4 1024.3 - 0.0
25/06:00pm 16.4 14.9 11.8 74 2.5 ENE 11 13 6 7 1023.9 1023.9 0.0
25/05:30pm 17.6 15.2 10.2 62 3.9 ENE 13 15 7 8 1023.7 - 0.0
25/05:00pm 20.9 19.1 9.5 48 6.1 N 9 9 5 5 1023.2 1023.2 0.0
25/04:30pm 22.9 21.1 9.3 42 7.3 N 9 11 5 6 1023.0 - 0.0
25/04:00pm 23.8 21.0 8.6 38 8.1 N 13 19 7 10 1022.8 1022.8 0.0
25/03:30pm 24.5 21.3 8.5 36 8.6 N 15 22 8 12 1022.7 - 0.0
25/03:00pm 24.5 20.9 6.7 32 9.2 NNW 15 22 8 12 1022.7 1022.7 0.0
25/02:30pm 25.6 22.7 6.3 29 10.0 N 11 19 6 10 1022.7 - 0.0
25/02:00pm 24.9 21.5 6.1 30 9.6 N 13 22 7 12 1022.8 1022.8 0.0
25/01:30pm 25.0 22.6 7.2 32 9.3 NNW 9 17 5 9 1023.1 - 0.0
25/01:00pm 24.3 22.2 8.3 36 8.5 NNW 9 19 5 10 1023.5 1023.5 0.0
25/12:30pm 24.1 22.0 9.7 40 7.9 N 11 17 6 9 1023.9 - 0.0
25/12:00pm 23.0 21.2 10.8 46 6.7 NW 11 19 6 10 1024.4 1024.4 0.0
25/11:30am 22.2 20.1 11.0 49 6.2 NW 13 19 7 10 1025.1 - 0.0
25/11:00am 20.5 18.5 11.4 56 5.0 NNW 13 19 7 10 1025.6 1025.6 0.0
25/10:30am 19.1 17.5 11.4 61 4.2 NW 11 17 6 9 1026.0 - 0.0
25/10:00am 16.4 15.1 11.3 72 2.7 W 9 13 5 7 1026.5 1026.5 0.0
25/09:30am 15.4 13.8 11.4 77 2.1 W 11 15 6 8 1026.5 - 0.0
25/09:00am 14.4 13.7 11.9 85 1.3 N 7 9 4 5 1026.1 1026.1 0.0
25/08:30am 11.3 10.1 9.6 89 0.9 N 6 7 3 4 1026.4 - 0.0
25/08:00am 9.1 7.5 8.2 94 0.4 NNW 6 7 3 4 1026.4 1026.4 0.0
25/07:30am 7.0 6.1 6.1 94 0.4 CALM 0 0 0 0 1026.2 - 0.0
25/07:00am 4.8 2.3 3.9 94 0.4 SW 6 7 3 4 1025.9 1025.9 0.0
25/06:30am 3.5 1.9 2.5 93 0.4 CALM 0 0 0 0 1025.4 - 0.0
25/06:00am 4.6 2.8 3.6 93 0.4 WSW 2 6 1 3 1025.1 1025.1 0.0
25/05:30am 4.8 2.1 3.8 93 0.4 W 7 9 4 5 1025.0 - 0.0
25/05:00am 5.1 2.7 4.1 93 0.4 WNW 6 7 3 4 1024.7 1024.7 0.0
25/04:30am 5.2 3.9 4.2 93 0.4 CALM 0 0 0 0 1024.6 - 0.0
25/04:00am 5.6 3.6 4.4 92 0.5 NW 4 6 2 3 1024.6 1024.6 0.0
25/03:30am 7.0 4.7 5.9 93 0.5 WNW 7 9 4 5 1024.5 - 0.0
25/03:00am 7.0 4.9 5.9 93 0.5 W 6 7 3 4 1024.5 1024.5 0.0
25/02:30am 7.9 5.5 7.0 94 0.4 W 9 13 5 7 1024.5 - 0.0
25/02:00am 7.1 5.0 5.7 91 0.6 W 6 9 3 5 1024.4 1024.4 0.0
25/01:30am 8.5 6.8 7.4 93 0.5 WNW 6 9 3 5 1024.3 - 0.0
25/01:00am 9.4 7.3 8.3 93 0.5 WNW 9 9 5 5 1024.3 1024.3 0.0
25/12:30am 9.7 7.7 8.8 94 0.4 WNW 9 11 5 6 1024.3 - 0.0
25/12:00am 10.0 8.1 9.1 94 0.4 WNW 9 11 5 6 1024.4 1024.4 0.0
 
Date/Time
EST
Temp
°C
App
Temp
°C
Dew
Point
Rel
Hum
%
Delta-T
°C
Wind Press
QNH
hPa
Press
MSL
hPa
Rain
since 9 am
mm
Dir
 
Spd
km/h
Gust
km/h
Spd
kts
Gust
kts
24/11:30pm 8.1 7.4 6.9 92 0.6 CALM 0 7 0 4 1024.5 - 0.0
24/11:00pm 8.3 6.3 7.1 92 0.6 WNW 7 9 4 5 1024.7 1024.7 0.0
24/10:30pm 8.6 7.2 7.2 91 0.7 WNW 4 7 2 4 1024.6 - 0.0
24/10:00pm 8.8 8.2 7.3 90 0.7 CALM 0 0 0 0 1024.5 1024.5 0.0
24/09:30pm 9.5 8.7 8.1 91 0.7 WSW 2 6 1 3 1024.4 - 0.0
24/09:00pm 9.9 8.8 8.3 90 0.8 SW 4 7 2 4 1024.1 1024.1 0.0
24/08:30pm 10.3 9.2 8.4 88 0.9 WSW 4 6 2 3 1023.9 - 0.0
24/08:00pm 11.6 11.6 9.9 89 0.9 CALM 0 0 0 0 1023.5 1023.5 0.0
24/07:30pm 11.9 10.6 10.0 88 1.0 ESE 7 11 4 6 1023.3 - 0.0
24/07:00pm 12.0 9.4 9.4 84 1.3 ESE 13 15 7 8 1023.0 1023.0 0.0
24/06:30pm 12.6 10.1 9.6 82 1.5 ESE 13 15 7 8 1022.6 - 0.0
24/06:00pm 13.7 11.7 10.3 80 1.8 ESE 11 13 6 7 1022.4 1022.4 0.0
24/05:30pm 15.3 12.6 10.3 72 2.6 E 15 17 8 9 1022.1 - 0.0
24/05:00pm 17.2 14.6 10.8 66 3.4 E 15 19 8 10 1021.8 1021.8 0.0
24/04:30pm 18.8 15.6 11.1 61 4.2 E 19 20 10 11 1021.5 - 0.0
24/04:00pm 19.9 16.4 10.9 56 4.9 E 20 28 11 15 1021.3 1021.3 0.0
24/03:30pm 21.6 19.0 9.5 46 6.5 ESE 13 20 7 11 1021.2 - 0.0
24/03:00pm 22.2 20.4 9.4 44 6.9 NE 9 15 5 8 1021.1 1021.1 0.0
24/02:30pm 22.3 21.1 9.5 44 6.9 ENE 6 9 3 5 1021.1 - 0.0
24/02:00pm 22.2 20.9 10.0 46 6.6 N 7 13 4 7 1021.3 1021.3 0.0
24/01:30pm 21.6 20.3 9.8 47 6.4 ENE 7 15 4 8 1021.4 - 0.0
24/01:00pm 20.3 19.2 10.1 52 5.5 S 6 9 3 5 1021.8 1021.8 0.0
24/12:30pm 20.2 18.5 9.7 51 5.6 ENE 9 13 5 7 1022.2 - 0.0
24/12:00pm 19.7 18.6 10.1 54 5.1 SSW 6 9 3 5 1022.7 1022.7 0.0
24/11:30am 19.2 18.3 10.5 57 4.7 SSE 6 9 3 5 1023.3 - 0.0
24/11:00am 18.0 16.9 10.1 60 4.2 S 6 9 3 5 1023.9 1023.9 0.0
24/10:30am 17.9 17.1 11.0 64 3.7 WSW 6 9 3 5 1024.1 - 0.0
24/10:00am 16.7 15.1 10.1 65 3.5 WSW 9 13 5 7 1024.1 1024.1 0.0
24/09:30am 16.6 15.1 10.5 67 3.2 NNW 9 13 5 7 1023.8 - 0.0
24/09:00am 14.7 13.1 10.3 75 2.3 NW 9 13 5 7 1023.7 1023.7 0.0
24/08:30am 13.1 11.5 10.3 83 1.5 NW 9 11 5 6 1023.4 - 0.0
24/08:00am 11.1 9.7 9.4 89 0.8 NNW 7 9 4 5 1023.3 1023.3 0.0
24/07:30am 10.5 9.0 9.1 91 0.7 WNW 7 11 4 6 1023.6 - 0.0
24/07:00am 9.8 8.2 8.2 90 0.8 WNW 6 7 3 4 1023.4 1023.4 0.0
24/06:30am 9.7 8.1 8.1 90 0.8 W 6 7 3 4 1023.2 - 0.0
24/06:00am 9.6 8.8 8.0 90 0.8 W 2 6 1 3 1022.6 1022.6 0.0
24/05:30am 9.9 8.2 8.5 91 0.7 NW 7 9 4 5 1022.3 - 0.0
24/05:00am 9.9 8.2 8.5 91 0.7 WNW 7 9 4 5 1022.3 1022.3 0.0
24/04:30am 10.1 7.7 8.7 91 0.7 WNW 11 15 6 8 1022.2 - 0.0
24/04:00am 9.8 7.4 8.7 93 0.5 NW 11 13 6 7 1021.9 1021.9 0.0
24/03:30am 9.4 7.3 8.3 93 0.5 WNW 9 11 5 6 1022.0 - 0.0
24/03:00am 9.1 8.3 8.0 93 0.5 SW 2 9 1 5 1022.1 1022.1 0.0
24/02:30am 9.2 7.6 8.1 93 0.5 WNW 6 7 3 4 1022.1 - 0.0
24/02:00am 8.9 8.1 8.0 94 0.4 WNW 2 7 1 4 1022.3 1022.3 0.0
24/01:30am 8.3 7.7 7.2 93 0.5 CALM 0 0 0 0 1022.6 - 0.0
24/01:00am 8.1 7.0 7.0 93 0.5 WNW 2 7 1 4 1022.7 1022.7 0.0
24/12:30am 8.1 6.3 7.0 93 0.5 NW 6 6 3 3 1022.8 - 0.0
24/12:00am 8.3 6.9 7.2 93 0.5 WNW 4 7 2 4 1022.9 1022.9 0.0
 
Date/Time
EST
Temp
°C
App
Temp
°C
Dew
Point
Rel
Hum
%
Delta-T
°C
Wind Press
QNH
hPa
Press
MSL
hPa
Rain
since 9 am
mm
Dir
 
Spd
km/h
Gust
km/h
Spd
kts
Gust
kts
23/11:30pm 7.8 6.3 6.7 93 0.5 W 4 6 2 3 1023.1 - 0.0
23/11:00pm 7.8 7.0 6.6 92 0.5 CALM 0 0 0 0 1023.1 1023.1 0.0
23/10:30pm 8.0 6.1 6.6 91 0.6 N 6 7 3 4 1023.0 - 0.0
23/10:00pm 8.1 5.9 6.4 89 0.8 SW 7 9 4 5 1023.1 1023.1 0.0
23/09:30pm 8.8 7.0 7.1 89 0.8 SW 6 7 3 4 1023.0 - 0.0
23/09:00pm 9.3 7.4 7.6 89 0.8 SW 7 7 4 4 1023.0 1023.0 0.0
23/08:30pm 10.8 9.3 9.2 90 0.8 W 7 11 4 6 1023.0 - 0.0
23/08:00pm 10.4 10.1 8.8 90 0.8 CALM 0 0 0 0 1022.6 1022.6 0.0
23/07:30pm 10.4 9.2 8.2 86 1.1 SE 4 6 2 3 1022.3 - 0.0
23/07:00pm 10.7 8.9 8.1 84 1.3 E 7 9 4 5 1022.2 1022.2 0.0
23/06:30pm 10.7 8.4 7.6 81 1.5 ESE 9 11 5 6 1022.2 - 0.0
23/06:00pm 11.5 9.7 7.8 78 1.8 ESE 7 11 4 6 1022.2 1022.2 0.0
23/05:30pm 13.1 11.5 8.8 75 2.2 SE 7 11 4 6 1022.1 - 0.0
23/05:00pm 14.5 11.9 9.3 71 2.7 ESE 13 15 7 8 1021.5 1021.5 0.0
23/04:30pm 15.8 13.6 9.5 66 3.3 E 11 13 6 7 1020.9 - 0.0
23/04:00pm 17.0 13.6 9.2 60 4.0 E 17 22 9 12 1021.1 1021.1 0.0
23/03:30pm 19.7 16.9 8.7 49 5.8 SE 13 19 7 10 1021.1 - 0.0
23/03:00pm 19.5 17.3 7.9 47 5.9 SW 9 15 5 8 1020.8 1020.8 0.0
23/02:30pm 18.3 16.2 8.3 52 5.1 S 9 17 5 9 1021.0 - 0.0
23/02:00pm 18.4 15.6 8.7 53 5.0 SSE 13 19 7 10 1020.8 1020.8 0.0
23/01:30pm 18.3 15.9 8.8 54 4.9 S 11 19 6 10 1020.9 - 0.0
23/01:00pm 19.3 17.5 9.5 53 5.2 SE 9 17 5 9 1021.2 1021.2 0.0
23/12:30pm 17.6 15.6 8.5 55 4.7 S 9 17 5 9 1021.6 - 0.0
23/12:00pm 18.3 16.6 9.9 58 4.4 S 9 13 5 7 1022.3 1022.3 0.0
23/11:30am 17.8 15.2 9.2 57 4.5 SSW 13 17 7 9 1023.0 - 0.0
23/11:00am 17.4 15.3 9.6 60 4.1 SSW 11 17 6 9 1023.8 1023.8 0.0
23/10:30am 16.6 14.5 9.8 64 3.6 SSW 11 19 6 10 1024.0 - 0.0
23/10:00am 14.8 12.9 9.2 69 2.9 WNW 9 11 5 6 1024.6 1024.6 0.0
23/09:30am 14.0 12.3 9.8 76 2.2 NW 9 13 5 7 1024.7 - 0.0
23/09:00am 13.1 10.6 9.7 80 1.7 NW 13 17 7 9 1024.5 1024.5 3.4
23/08:30am 11.3 8.7 9.4 88 1.0 WNW 13 15 7 8 1024.3 - 3.4
23/08:00am 9.1 7.4 8.2 94 0.4 WNW 7 9 4 5 1024.2 1024.2 3.4
23/07:30am 7.2 4.6 6.3 94 0.4 W 9 11 5 6 1023.7 - 3.4
23/07:00am 5.4 2.9 4.5 94 0.4 W 7 7 4 4 1023.4 1023.4 3.4
23/06:30am 6.3 3.6 5.4 94 0.4 W 9 11 5 6 1023.1 - 3.4
23/06:00am 6.0 3.2 5.1 94 0.4 W 9 11 5 6 1022.4 1022.4 3.4
23/05:30am 6.2 3.4 5.3 94 0.4 W 9 13 5 7 1022.2 - 3.4
23/05:00am 6.5 3.4 5.6 94 0.4 WNW 11 15 6 8 1021.8 1021.8 3.4
23/04:30am 6.6 4.3 5.7 94 0.4 W 7 11 4 6 1021.7 - 3.4
23/04:00am 6.9 3.9 6.0 94 0.4 W 11 13 6 7 1021.5 1021.5 3.4
23/03:30am 7.3 5.1 6.4 94 0.4 W 7 9 4 5 1021.8 - 3.4
23/03:00am 7.3 5.1 6.4 94 0.4 WNW 7 11 4 6 1021.9 1021.9 3.4
23/02:30am 7.2 5.0 6.1 93 0.5 WNW 7 11 4 6 1021.9 - 3.4
23/02:00am 6.9 4.6 5.7 92 0.5 W 7 9 4 5 1022.2 1022.2 3.4
23/01:30am 8.5 6.2 7.4 93 0.5 W 9 13 5 7 1022.3 - 3.4
23/01:00am 8.2 6.2 7.1 93 0.5 WNW 7 11 4 6 1022.3 1022.3 3.4
23/12:30am 7.6 5.4 6.1 90 0.7 WNW 7 9 4 5 1022.3 - 3.4
23/12:00am 9.1 6.9 7.9 92 0.6 NW 9 11 5 6 1022.3 1022.3 3.2
 
Date/Time
EST
Temp
°C
App
Temp
°C
Dew
Point
Rel
Hum
%
Delta-T
°C
Wind Press
QNH
hPa
Press
MSL
hPa
Rain
since 9 am
mm
Dir
 
Spd
km/h
Gust
km/h
Spd
kts
Gust
kts
22/11:30pm 9.0 6.8 7.8 92 0.6 W 9 11 5 6 1022.5 - 3.2
22/11:00pm 9.3 7.2 8.2 93 0.5 WNW 9 13 5 7 1022.4 1022.4 3.2
22/10:30pm 9.1 7.5 7.9 92 0.6 WNW 6 9 3 5 1022.6 - 3.2
22/10:00pm 9.3 7.5 7.9 91 0.7 NNW 7 7 4 4 1022.8 1022.8 3.2
22/09:30pm 10.1 8.5 8.9 92 0.6 NW 7 9 4 5 1022.9 - 3.2
22/09:00pm 10.3 8.8 9.1 92 0.6 WNW 7 9 4 5 1022.8 1022.8 3.2
22/08:30pm 10.0 8.5 8.6 91 0.7 NW 6 7 3 4 1022.7 - 3.2

Other Formats:

Comma delimited format used in spreadsheet applications
http://www.bom.gov.au/fwo/IDN60801/IDN60801.94573.axf

JavaScript Object Notation format (JSON) in row-major order
http://www.bom.gov.au/fwo/IDN60801/IDN60801.94573.json